Time;durP1;ratioP1;P1;durP2;ratioP2;P2;SDS_P1;SDS_P2;PMS_P1;PMS_P2;Temp;Humidity;BMP_temperature;BMP_pressure;BME280_temperature;BME280_humidity;BME280_pressure;Samples;Min_cycle;Max_cycle;Signal;HPM_P1;HPM_P2
2022/01/19 00:02:15;;;;;;;5.03;2.72;;;4.40;99.90;;;4.18;88.17;102632.59;5182666;28;20057;-71
2022/01/19 00:04:47;;;;;;;7.80;3.35;;;4.40;99.90;;;4.20;88.21;102634.53;5185118;28;20061;-72
2022/01/19 00:07:19;;;;;;;8.63;2.97;;;4.40;99.90;;;4.19;88.37;102631.81;5185172;28;20057;-72
2022/01/19 00:09:51;;;;;;;6.32;2.65;;;4.40;99.90;;;4.20;88.05;102628.47;5185264;28;20046;-72
2022/01/19 00:12:23;;;;;;;5.25;2.53;;;4.40;99.90;;;4.18;88.76;102624.84;5185430;28;20049;-71
2022/01/19 00:14:55;;;;;;;6.65;3.00;;;4.40;99.90;;;4.16;88.92;102622.09;5184664;28;20487;-71
2022/01/19 00:17:29;;;;;;;6.43;2.60;;;4.40;99.90;;;4.18;88.77;102618.00;5185279;28;20056;-72
2022/01/19 00:20:01;;;;;;;5.40;2.83;;;4.50;99.90;;;4.18;89.33;102612.84;5185218;28;20045;-71
2022/01/19 00:22:33;;;;;;;5.10;2.65;;;4.50;99.90;;;4.21;89.14;102599.28;5184366;28;20053;-72
2022/01/19 00:25:07;;;;;;;5.97;2.60;;;4.50;99.90;;;4.18;89.57;102583.53;5184199;28;20056;-71
2022/01/19 00:27:38;;;;;;;4.50;2.22;;;4.50;99.90;;;4.18;90.32;102562.88;5185111;28;20388;-71
2022/01/19 00:30:12;;;;;;;4.78;2.05;;;4.60;99.90;;;4.14;90.56;102545.31;5184624;28;20506;-72
2022/01/19 00:32:45;;;;;;;5.00;2.20;;;4.60;99.90;;;4.16;90.71;102544.66;5185106;28;20054;-72
2022/01/19 00:35:17;;;;;;;4.22;2.03;;;4.60;99.90;;;4.20;90.40;102536.44;5184080;28;20411;-71
2022/01/19 00:37:49;;;;;;;5.10;2.28;;;4.60;99.90;;;4.23;90.41;102540.94;5184928;28;20046;-72
2022/01/19 00:40:22;;;;;;;3.78;2.30;;;4.70;99.90;;;4.26;90.42;102546.38;5184725;28;20061;-72
2022/01/19 00:42:54;;;;;;;4.25;2.22;;;4.70;99.90;;;4.32;90.58;102549.50;5184519;28;20050;-71
2022/01/19 00:45:26;;;;;;;6.13;2.25;;;4.70;99.90;;;4.32;89.87;102546.94;5184337;28;20216;-71
2022/01/19 00:48:00;;;;;;;4.82;2.15;;;4.70;99.90;;;4.37;89.80;102550.81;5184575;28;20372;-71
2022/01/19 00:50:32;;;;;;;7.82;2.33;;;4.80;99.90;;;4.40;89.41;102560.50;5184540;28;20056;-72
2022/01/19 00:53:04;;;;;;;3.33;2.05;;;4.80;99.90;;;4.38;89.07;102562.97;5185181;28;20486;-71
2022/01/19 00:55:36;;;;;;;3.85;2.00;;;4.70;99.90;;;4.37;89.07;102574.06;5184644;28;20432;-72
2022/01/19 00:58:08;;;;;;;4.18;2.03;;;4.80;99.90;;;4.35;89.55;102557.50;5184120;28;20050;-71
2022/01/19 01:00:40;;;;;;;2.97;2.00;;;4.70;99.90;;;4.35;89.24;102557.50;5184608;28;20060;-71
2022/01/19 01:03:13;;;;;;;3.30;2.13;;;4.70;99.90;;;4.37;89.28;102550.81;5184404;28;20053;-72
2022/01/19 01:05:47;;;;;;;4.53;2.33;;;4.80;99.90;;;4.42;89.77;102538.28;5183167;28;20483;-72
2022/01/19 01:08:19;;;;;;;5.55;2.20;;;4.80;99.90;;;4.42;89.47;102539.19;5184648;28;20343;-71
2022/01/19 01:10:51;;;;;;;5.97;2.30;;;4.80;99.90;;;4.43;89.48;102535.84;5183779;28;20050;-72
2022/01/19 01:13:30;;;;;;;4.93;2.17;;;4.80;99.90;;;4.45;89.48;102534.31;5193085;28;20056;-71
2022/01/19 01:16:03;;;;;;;5.22;2.47;;;4.80;99.90;;;4.52;89.41;102535.75;5183924;28;20054;-71
2022/01/19 01:18:36;;;;;;;4.82;2.05;;;4.90;99.90;;;4.57;89.17;102532.78;5184842;28;20050;-72
2022/01/19 01:21:08;;;;;;;4.95;2.60;;;4.90;99.90;;;4.61;88.95;102534.84;5184623;28;20056;-72
2022/01/19 01:23:42;;;;;;;5.63;3.20;;;4.90;99.90;;;4.67;89.11;102546.50;5184778;28;20084;-71
2022/01/19 01:26:14;;;;;;;6.78;3.05;;;5.00;99.90;;;4.71;88.86;102548.56;5182946;28;20057;-71
2022/01/19 01:28:46;;;;;;;6.13;3.13;;;5.10;99.90;;;4.79;88.93;102547.56;5170438;28;20042;-72
2022/01/19 01:31:18;;;;;;;5.40;3.00;;;5.10;99.90;;;4.82;88.62;102538.38;5176210;28;20121;-71
2022/01/19 01:33:52;;;;;;;6.53;2.83;;;5.20;99.90;;;4.92;88.25;102529.72;5166983;28;20063;-72
2022/01/19 01:36:24;;;;;;;6.25;2.83;;;5.20;99.90;;;4.93;88.40;102530.63;5163982;28;20048;-72
2022/01/19 01:38:56;;;;;;;6.10;3.38;;;5.30;99.90;;;4.97;87.57;102518.09;5164006;28;20052;-71
2022/01/19 01:41:30;;;;;;;5.90;3.40;;;5.30;99.90;;;5.03;88.02;102517.72;5164151;28;20052;-71
2022/01/19 01:44:02;;;;;;;6.38;3.65;;;5.30;99.90;;;5.02;87.28;102516.81;5163442;28;20542;-71
2022/01/19 01:46:43;;;;;;;6.28;3.70;;;5.30;99.90;;;5.00;87.43;102520.94;5163205;28;20046;-71
2022/01/19 01:49:24;;;;;;;9.00;3.83;;;5.30;99.90;;;5.02;87.30;102532.34;5163612;28;20149;-71
2022/01/19 01:54:46;;;;;;;8.77;4.00;;;5.30;99.90;;;5.07;87.60;102532.69;5163754;28;20058;-71
2022/01/19 01:57:18;;;;;;;8.13;4.20;;;5.40;99.90;;;5.10;87.64;102539.06;5164245;28;20076;-71
2022/01/19 01:59:50;;;;;;;3.88;2.40;;;5.40;99.90;;;5.14;87.52;102546.28;5163870;28;20137;-71
2022/01/19 02:02:22;;;;;;;6.43;3.10;;;5.40;99.90;;;5.24;87.36;102544.47;5164188;28;20394;-72
2022/01/19 02:04:56;;;;;;;6.80;3.80;;;5.40;99.90;;;5.27;86.64;102539.53;5163237;28;20054;-72
2022/01/19 02:07:32;;;;;;;6.88;3.80;;;5.50;99.90;;;5.29;86.50;102532.84;5164041;28;20042;-72
2022/01/19 02:10:08;;;;;;;7.43;3.55;;;5.50;99.90;;;5.33;87.01;102525.44;5163948;28;20491;-71
2022/01/19 02:15:54;;;;;;;8.35;4.22;;;5.60;99.90;;;5.37;86.09;102505.94;5163063;28;20503;-71
2022/01/19 02:21:39;;;;;;;8.63;4.32;;;5.60;99.90;;;5.37;86.39;102488.72;5163830;28;20057;-72
2022/01/19 02:24:14;;;;;;;8.73;4.38;;;5.60;99.90;;;5.42;86.15;102489.13;5165682;28;20109;-71
2022/01/19 02:26:56;;;;;;;8.18;4.80;;;5.60;99.90;;;5.40;86.32;102476.03;5167777;28;20047;-70
2022/01/19 02:40:56;;;;;;;9.52;4.00;;;5.70;99.90;;;5.39;86.50;102448.38;5166916;28;20054;-70
2022/01/19 02:43:29;;;;;;;10.13;4.68;;;5.60;99.90;;;5.41;86.08;102445.91;5167227;28;20397;-71
2022/01/19 02:51:49;;;;;;;7.63;4.57;;;5.70;99.90;;;5.53;85.86;102433.97;5156222;28;20105;-71
2022/01/19 02:54:24;;;;;;;6.90;3.80;;;5.70;99.90;;;5.59;86.05;102437.03;5166261;28;20193;-72
2022/01/19 02:57:00;;;;;;;8.38;4.35;;;5.70;99.90;;;5.60;85.90;102428.50;5166608;28;20046;-71
2022/01/19 02:59:43;;;;;;;8.65;3.67;;;5.80;99.90;;;5.66;85.69;102425.50;5167210;28;20054;-71
2022/01/19 03:10:47;;;;;;;6.88;2.75;;;5.90;99.90;;;5.73;85.48;102374.34;5166290;28;20058;-71
2022/01/19 03:13:19;;;;;;;3.45;2.20;;;5.90;99.90;;;5.69;84.54;102382.69;5166577;28;20061;-72
2022/01/19 03:15:51;;;;;;;5.97;2.65;;;5.90;99.90;;;5.69;84.77;102372.34;5166213;28;20060;-71
2022/01/19 03:18:23;;;;;;;6.32;2.50;;;5.90;99.90;;;5.73;85.32;102360.53;5166602;28;20047;-73
2022/01/19 03:20:55;;;;;;;4.57;2.42;;;5.90;99.90;;;5.68;84.29;102336.91;5166643;28;20047;-71
2022/01/19 03:23:27;;;;;;;3.25;2.72;;;5.90;99.90;;;5.67;84.57;102335.09;5166748;28;20046;-72
2022/01/19 03:26:05;;;;;;;3.67;2.17;;;5.90;99.90;;;5.66;85.27;102325.50;5166485;28;20053;-72
2022/01/19 03:28:37;;;;;;;4.05;2.63;;;5.90;99.90;;;5.68;84.59;102328.22;5166415;28;20137;-71
2022/01/19 03:31:09;;;;;;;3.90;2.25;;;5.90;99.90;;;5.68;84.45;102329.13;5166153;28;20051;-71
2022/01/19 03:33:42;;;;;;;4.28;2.22;;;5.90;99.90;;;5.64;83.57;102326.16;5165871;28;20050;-71
2022/01/19 03:36:14;;;;;;;4.05;2.70;;;5.90;99.90;;;5.62;84.19;102318.31;5166108;28;20050;-71
2022/01/19 03:38:46;;;;;;;3.40;2.22;;;5.90;99.90;;;5.67;84.14;102310.88;5166505;28;20046;-71
2022/01/19 03:41:20;;;;;;;3.83;2.50;;;5.90;99.90;;;5.71;83.72;102311.25;5166230;28;20089;-72
2022/01/19 03:43:52;;;;;;;3.67;2.75;;;5.90;99.90;;;5.66;84.36;102302.22;5166077;28;20061;-71
2022/01/19 03:46:32;;;;;;;5.30;2.38;;;5.90;99.90;;;5.70;84.26;102299.09;5166145;28;20050;-70
2022/01/19 03:49:12;;;;;;;5.00;2.28;;;5.90;99.90;;;5.76;83.71;102297.78;5165526;28;20050;-72
2022/01/19 03:51:44;;;;;;;6.80;2.88;;;5.90;99.90;;;5.80;83.56;102321.41;5166063;28;20089;-71
2022/01/19 03:54:16;;;;;;;4.22;2.63;;;6.00;99.90;;;5.84;84.09;102330.31;5165479;28;20072;-71
2022/01/19 03:56:50;;;;;;;4.22;2.80;;;6.00;99.90;;;5.85;84.04;102327.84;5165888;28;20052;-71
2022/01/19 03:59:23;;;;;;;4.38;2.83;;;6.00;99.90;;;5.90;83.47;102323.03;5165755;28;20081;-71
2022/01/19 04:01:57;;;;;;;6.18;2.58;;;6.10;99.90;;;5.93;83.95;102320.69;5165927;28;20528;-71
2022/01/19 04:04:40;;;;;;;8.50;3.70;;;6.10;99.90;;;5.94;83.55;102319.94;5165719;28;20046;-71
2022/01/19 04:07:14;;;;;;;4.95;3.15;;;6.10;99.90;;;5.94;83.58;102322.53;5165911;28;20120;-71
2022/01/19 04:09:47;;;;;;;5.72;3.17;;;6.10;99.90;;;5.97;83.64;102307.22;5165497;28;20061;-71
2022/01/19 04:12:40;;;;;;;4.60;2.78;;;6.10;99.90;;;5.97;83.23;102312.41;5165451;28;20052;-73
2022/01/19 04:15:15;;;;;;;4.03;2.88;;;6.10;99.90;;;5.99;83.76;102310.81;5165095;28;20387;-71
2022/01/19 04:17:51;;;;;;;8.95;5.97;;;6.10;99.90;;;5.96;83.14;102305.44;5165268;28;20049;-71
2022/01/19 04:20:26;;;;;;;9.20;4.93;;;6.10;99.90;;;5.94;83.70;102307.00;5165298;28;20455;-72
2022/01/19 04:22:58;;;;;;;6.22;4.20;;;6.10;99.90;;;5.91;83.67;102297.28;5165560;28;20058;-71
2022/01/19 04:25:30;;;;;;;5.22;3.30;;;6.10;99.90;;;5.94;83.47;102301.84;5164949;28;20050;-72
2022/01/19 04:28:07;;;;;;;5.97;3.78;;;6.10;99.90;;;5.92;83.78;102298.19;5165195;28;20054;-71
2022/01/19 04:30:41;;;;;;;5.55;3.22;;;6.10;99.90;;;5.93;83.32;102289.63;5164974;28;20416;-71
2022/01/19 04:33:17;;;;;;;4.82;3.15;;;6.10;99.90;;;5.94;83.02;102283.72;5165172;28;20061;-72
2022/01/19 04:35:52;;;;;;;6.80;3.70;;;6.10;99.90;;;5.90;83.44;102284.22;5164955;28;20503;-71
2022/01/19 05:04:01;;;;;;;5.75;3.10;;;6.10;99.90;;;5.87;83.35;102256.41;5164746;28;20057;-71
2022/01/19 05:06:37;;;;;;;7.50;3.13;;;6.10;99.90;;;5.92;83.63;102261.97;5165189;28;20054;-71
2022/01/19 05:09:22;;;;;;;4.88;3.05;;;6.10;99.90;;;5.92;83.42;102254.19;5165263;28;20055;-70
2022/01/19 05:14:44;;;;;;;5.50;2.70;;;6.10;99.90;;;5.94;83.11;102240.59;5164591;28;20521;-71
2022/01/19 05:17:18;;;;;;;5.68;3.33;;;6.10;99.90;;;5.93;83.23;102248.22;5165211;28;20046;-71
2022/01/19 05:19:54;;;;;;;3.78;2.17;;;6.10;99.90;;;5.97;82.65;102248.59;5164700;28;20050;-71
2022/01/19 05:22:26;;;;;;;4.88;2.65;;;6.10;99.90;;;5.93;81.79;102250.81;5164747;28;20423;-71
2022/01/19 05:24:58;;;;;;;6.03;2.70;;;6.10;99.90;;;5.85;82.18;102255.38;5164369;28;20668;-72
2022/01/19 05:27:31;;;;;;;4.90;2.75;;;6.00;99.90;;;5.87;82.02;102245.16;5164849;28;20050;-71
2022/01/19 05:30:04;;;;;;;2.97;2.33;;;6.10;99.90;;;5.90;82.27;102250.56;5280043;23;20050;-70
2022/01/19 05:32:37;;;;;;;4.90;2.38;;;6.00;99.90;;;5.97;81.56;102255.44;5173660;28;20100;-71
2022/01/19 05:35:10;;;;;;;6.97;2.55;;;6.10;99.90;;;5.96;80.83;102243.31;5164170;28;20056;-71
2022/01/19 05:37:42;;;;;;;5.18;2.42;;;6.10;99.90;;;6.01;81.64;102230.72;5164891;28;20046;-70
2022/01/19 05:40:15;;;;;;;6.90;2.78;;;6.10;99.90;;;5.97;81.03;102224.41;5164920;28;20054;-70
2022/01/19 05:42:49;;;;;;;6.07;2.40;;;6.10;99.90;;;5.99;79.61;102222.81;5165074;28;20100;-71
2022/01/19 05:45:21;;;;;;;5.68;2.75;;;6.10;99.90;;;5.92;79.98;102215.38;5163778;28;20089;-71
2022/01/19 05:47:54;;;;;;;7.53;3.03;;;6.10;99.90;;;5.91;80.23;102216.16;5163890;28;20048;-70
2022/01/19 05:50:26;;;;;;;5.90;2.25;;;6.10;99.90;;;5.91;79.59;102210.97;5164177;28;20042;-71
2022/01/19 05:52:58;;;;;;;5.40;2.45;;;6.10;99.90;;;5.89;79.51;102205.66;5164115;28;20406;-71
2022/01/19 05:55:30;;;;;;;4.80;2.38;;;6.10;99.90;;;5.92;80.11;102221.44;5163363;28;20054;-71
2022/01/19 05:58:02;;;;;;;3.05;2.20;;;6.10;99.90;;;5.95;79.05;102220.78;5166396;28;20404;-69
2022/01/19 06:00:34;;;;;;;3.13;2.47;;;6.10;99.90;;;5.93;79.02;102212.00;5167873;28;20058;-70
2022/01/19 06:03:08;;;;;;;4.47;2.35;;;6.10;99.90;;;5.97;79.03;102198.50;5167965;28;20050;-70
2022/01/19 06:05:40;;;;;;;5.15;2.78;;;6.10;99.90;;;5.95;79.11;102203.56;5167598;28;20055;-70
2022/01/19 06:08:17;;;;;;;4.82;2.33;;;6.10;99.90;;;6.01;79.32;102195.38;5167670;28;20050;-70
2022/01/19 06:10:54;;;;;;;4.57;2.83;;;6.10;99.90;;;6.02;77.99;102197.16;5167565;28;20046;-70
2022/01/19 06:13:26;;;;;;;3.22;2.22;;;6.10;99.90;;;5.92;78.75;102189.47;5167574;28;20055;-70
2022/01/19 06:15:58;;;;;;;3.92;2.70;;;6.10;99.90;;;5.96;78.81;102186.34;5167295;28;20056;-71
2022/01/19 06:18:32;;;;;;;4.70;2.83;;;6.10;99.90;;;5.92;78.26;102176.53;5167686;28;20049;-70
2022/01/19 06:21:04;;;;;;;7.50;3.28;;;6.10;99.90;;;5.86;78.96;102183.81;5167497;28;20046;-70
2022/01/19 06:23:37;;;;;;;5.80;3.30;;;6.00;99.90;;;5.82;79.00;102181.78;5167164;28;20054;-70
2022/01/19 06:26:09;;;;;;;7.45;3.60;;;6.00;99.90;;;5.84;79.04;102181.13;5166954;28;20054;-71
2022/01/19 06:28:41;;;;;;;11.85;4.47;;;6.00;99.90;;;5.83;78.68;102178.41;5167505;28;20506;-70
2022/01/19 06:31:13;;;;;;;10.10;4.18;;;6.00;99.90;;;5.87;77.98;102181.38;5167175;28;20050;-70
2022/01/19 06:33:46;;;;;;;8.60;4.65;;;6.00;99.90;;;5.87;77.91;102181.38;5166953;28;20487;-69
2022/01/19 06:36:18;;;;;;;6.43;4.07;;;6.00;99.90;;;5.86;78.42;102176.03;5167322;28;20046;-70
2022/01/19 06:38:50;;;;;;;6.13;3.65;;;6.00;99.90;;;5.93;78.78;102170.56;5167422;28;20046;-69
2022/01/19 06:41:22;;;;;;;6.40;3.25;;;6.00;99.90;;;5.91;78.28;102165.28;5167254;28;20491;-69
2022/01/19 06:43:54;;;;;;;5.55;3.65;;;6.00;99.90;;;5.90;77.83;102163.47;5166892;28;20061;-70
2022/01/19 06:46:27;;;;;;;9.98;3.78;;;6.10;99.90;;;5.91;77.78;102159.22;5166850;28;20062;-71
2022/01/19 06:49:00;;;;;;;9.52;4.43;;;6.10;99.90;;;5.94;78.30;102162.06;5166919;28;20129;-70
2022/01/19 06:51:32;;;;;;;7.35;4.47;;;6.10;99.90;;;5.94;78.09;102151.69;5166892;28;20053;-71
2022/01/19 06:54:04;;;;;;;7.75;4.15;;;6.10;99.90;;;5.94;78.16;102144.84;5166631;28;20159;-70
2022/01/19 06:56:37;;;;;;;7.95;4.00;;;6.10;99.90;;;5.93;77.88;102129.16;5166597;28;20050;-70
2022/01/19 06:59:09;;;;;;;12.82;5.05;;;6.10;99.90;;;5.95;77.63;102127.63;5167052;28;20050;-69
2022/01/19 07:01:41;;;;;;;11.32;5.30;;;6.10;99.90;;;5.91;77.85;102131.66;5167086;28;20054;-71
2022/01/19 07:04:16;;;;;;;10.80;5.15;;;6.10;99.90;;;5.90;78.00;102124.63;5166664;28;20050;-72
2022/01/19 07:06:48;;;;;;;10.45;4.97;;;6.00;99.90;;;5.91;78.28;102118.69;5166892;28;20484;-72
2022/01/19 07:09:21;;;;;;;7.88;4.45;;;6.00;99.90;;;5.90;78.16;102113.38;5166274;28;20048;-70
2022/01/19 07:11:53;;;;;;;10.80;5.00;;;6.00;99.90;;;5.90;78.74;102101.34;5166402;28;20050;-71
2022/01/19 07:14:25;;;;;;;9.50;5.00;;;6.10;99.90;;;5.93;78.54;102105.88;5166669;28;20057;-71
2022/01/19 07:16:57;;;;;;;12.55;5.15;;;6.10;99.90;;;5.92;78.62;102096.31;5166407;28;20050;-70
2022/01/19 07:19:30;;;;;;;9.38;4.68;;;6.10;99.90;;;5.93;78.31;102098.09;5166603;28;20503;-72
2022/01/19 07:22:03;;;;;;;8.75;3.95;;;6.10;99.90;;;5.93;78.49;102093.84;5166701;28;20524;-71
2022/01/19 07:24:35;;;;;;;8.80;4.30;;;6.10;99.90;;;5.94;78.54;102099.94;5166507;28;20061;-69
2022/01/19 07:27:07;;;;;;;9.63;5.18;;;6.10;99.90;;;6.04;78.56;102102.38;5166293;28;20062;-72
2022/01/19 07:29:39;;;;;;;9.00;4.55;;;6.10;99.90;;;6.06;77.72;102090.44;5166498;28;20051;-72
2022/01/19 07:32:12;;;;;;;7.10;3.72;;;6.20;99.90;;;6.15;78.00;102083.38;5166830;28;20257;-73
2022/01/19 07:34:45;;;;;;;14.20;5.05;;;6.20;99.90;;;6.21;77.65;102076.06;5166080;28;20050;-72
2022/01/19 07:37:17;;;;;;;16.42;5.05;;;6.30;99.90;;;6.27;78.05;102079.88;5165428;28;20060;-71
2022/01/19 07:39:49;;;;;;;11.00;4.57;;;6.30;99.90;;;6.36;78.03;102080.53;5166185;28;20052;-73
2022/01/19 07:42:21;;;;;;;10.80;4.70;;;6.40;99.90;;;6.43;77.60;102082.78;5165670;28;20086;-71
2022/01/19 07:44:54;;;;;;;11.43;4.07;;;6.50;99.90;;;6.43;77.06;102085.38;5165392;28;20050;-71
2022/01/19 07:47:28;;;;;;;9.88;4.63;;;6.50;99.90;;;6.44;76.32;102088.06;5166079;28;20051;-71
2022/01/19 07:50:01;;;;;;;12.23;4.60;;;6.50;99.90;;;6.39;76.16;102085.91;5165826;28;20046;-70
2022/01/19 07:52:33;;;;;;;9.45;4.40;;;6.50;99.90;;;6.35;76.27;102086.50;5165751;28;20056;-70
2022/01/19 07:55:06;;;;;;;9.88;4.40;;;6.50;99.90;;;6.32;76.37;102088.88;5165575;28;20053;-70
2022/01/19 07:57:45;;;;;;;6.88;3.78;;;6.50;99.90;;;6.30;75.99;102090.44;5166033;28;20403;-70
2022/01/19 08:00:17;;;;;;;10.07;4.43;;;6.40;99.90;;;6.25;76.38;102078.06;5165889;28;20050;-70
2022/01/19 08:02:50;;;;;;;7.35;4.28;;;6.40;99.90;;;6.24;76.63;102088.31;5165666;28;20052;-69
2022/01/19 08:05:24;;;;;;;7.65;4.05;;;6.30;99.90;;;6.22;76.49;102080.44;5165319;28;20050;-69
2022/01/19 08:07:56;;;;;;;8.20;4.50;;;6.30;99.90;;;6.21;76.92;102078.66;5165637;28;20055;-71
2022/01/19 08:10:29;;;;;;;8.05;3.97;;;6.30;99.90;;;6.21;76.54;102075.16;5165402;28;20498;-71
2022/01/19 08:13:03;;;;;;;8.93;4.18;;;6.30;99.90;;;6.20;76.91;102076.84;5165652;28;20535;-71
2022/01/19 08:15:35;;;;;;;7.95;4.00;;;6.30;99.90;;;6.21;76.89;102076.06;5164736;28;20420;-71
2022/01/19 08:18:07;;;;;;;7.93;3.97;;;6.30;99.90;;;6.21;77.45;102068.28;5165432;28;20092;-71
2022/01/19 08:20:43;;;;;;;9.65;4.60;;;6.30;99.90;;;6.21;77.01;102076.06;5164582;28;20050;-71
2022/01/19 08:23:15;;;;;;;8.05;4.00;;;6.30;99.90;;;6.21;77.14;102068.28;5165173;28;20431;-70
2022/01/19 08:25:47;;;;;;;7.50;4.43;;;6.30;99.90;;;6.22;77.53;102074.38;5164472;28;20050;-70
2022/01/19 08:28:20;;;;;;;6.88;3.55;;;6.30;99.90;;;6.21;77.57;102067.38;5164637;28;20050;-71
2022/01/19 08:30:52;;;;;;;6.95;4.10;;;6.30;99.90;;;6.24;76.89;102065.00;5164880;28;20064;-71
2022/01/19 08:33:24;;;;;;;8.02;4.35;;;6.30;99.90;;;6.22;76.49;102062.31;5165034;28;20058;-71
2022/01/19 08:35:58;;;;;;;9.73;4.20;;;6.30;99.90;;;6.19;76.36;102062.09;5164673;28;20057;-70
2022/01/19 08:38:30;;;;;;;9.35;4.63;;;6.30;99.90;;;6.18;76.69;102061.97;5164965;28;20053;-70
2022/01/19 08:41:02;;;;;;;5.28;3.53;;;6.30;99.90;;;6.19;76.94;102050.81;5164357;28;20050;-71
2022/01/19 08:43:35;;;;;;;7.32;4.30;;;6.30;99.90;;;6.20;76.62;102052.66;5154454;28;20058;-71
2022/01/19 08:46:07;;;;;;;8.57;4.40;;;6.30;99.90;;;6.21;76.52;102052.75;5153227;28;20057;-71
2022/01/19 08:48:39;;;;;;;8.63;4.30;;;6.30;99.90;;;6.22;76.66;102062.31;5144785;28;20050;-71
2022/01/19 08:51:12;;;;;;;9.23;4.75;;;6.30;99.90;;;6.23;77.44;102056.34;5183552;28;20069;-71
2022/01/19 08:53:44;;;;;;;6.50;3.78;;;6.30;99.90;;;6.25;77.18;102057.34;5184756;28;20403;-70
2022/01/19 08:56:16;;;;;;;7.53;4.13;;;6.30;99.90;;;6.26;76.78;102055.69;5184563;28;20056;-70
2022/01/19 08:58:48;;;;;;;6.55;3.80;;;6.30;99.90;;;6.21;76.72;102044.97;5184593;28;20042;-71
2022/01/19 09:01:20;;;;;;;10.55;4.57;;;6.30;99.90;;;6.22;76.83;102046.78;5184524;28;20053;-70
2022/01/19 09:03:52;;;;;;;11.43;4.75;;;6.30;99.90;;;6.24;77.41;102047.78;5183899;28;20053;-70
2022/01/19 09:06:26;;;;;;;7.78;4.22;;;6.30;99.90;;;6.23;76.84;102053.75;5184326;28;20419;-71
2022/01/19 09:08:58;;;;;;;8.13;4.53;;;6.30;99.90;;;6.23;76.88;102051.16;5184312;28;20045;-70
2022/01/19 09:11:30;;;;;;;8.27;4.32;;;6.30;99.90;;;6.24;77.64;102049.47;5184569;28;20056;-70
2022/01/19 09:14:03;;;;;;;8.05;4.40;;;6.30;99.90;;;6.25;76.88;102041.81;5183416;28;20064;-71
2022/01/19 09:16:35;;;;;;;9.02;4.13;;;6.30;99.90;;;6.29;77.71;102039.44;5184316;28;20058;-71
2022/01/19 09:19:08;;;;;;;9.07;4.68;;;6.30;99.90;;;6.27;76.87;102041.03;5184636;28;20048;-72
2022/01/19 09:21:41;;;;;;;9.10;3.92;;;6.30;99.90;;;6.28;76.83;102046.31;5184387;28;20124;-70
2022/01/19 09:24:13;;;;;;;8.23;4.03;;;6.30;99.90;;;6.31;76.92;102046.53;5183783;28;20158;-71
2022/01/19 09:26:46;;;;;;;8.13;4.32;;;6.40;99.90;;;6.30;76.51;102046.44;5184378;28;20060;-70
2022/01/19 09:29:18;;;;;;;8.10;4.07;;;6.40;99.90;;;6.33;76.19;102044.06;5183918;28;20045;-71
2022/01/19 09:31:50;;;;;;;8.52;4.25;;;6.40;99.90;;;6.32;76.37;102042.25;5184162;28;20237;-70
2022/01/19 09:34:22;;;;;;;9.45;4.53;;;6.40;99.90;;;6.33;76.16;102036.31;5183923;28;20513;-71
2022/01/19 09:36:55;;;;;;;7.90;4.30;;;6.40;99.90;;;6.33;76.18;102041.47;5184252;28;20050;-71
2022/01/19 09:39:28;;;;;;;9.10;4.70;;;6.40;99.90;;;6.32;76.23;102034.47;5183627;28;20114;-71
2022/01/19 09:42:00;;;;;;;6.50;3.95;;;6.40;99.90;;;6.31;76.34;102035.28;5184311;28;20056;-71
2022/01/19 09:44:32;;;;;;;8.60;4.97;;;6.40;99.90;;;6.31;76.85;102024.91;5183723;28;20080;-71
2022/01/19 09:47:05;;;;;;;8.68;4.38;;;6.40;99.90;;;6.29;76.81;102024.81;5184386;28;20060;-72
2022/01/19 09:49:37;;;;;;;8.43;4.95;;;6.40;99.90;;;6.31;76.75;102014.56;5183598;28;20056;-71
2022/01/19 09:52:10;;;;;;;10.35;5.20;;;6.40;99.90;;;6.33;76.69;102007.81;5184311;28;20053;-72
2022/01/19 09:54:42;;;;;;;12.73;5.38;;;6.40;99.90;;;6.34;76.63;102005.31;5166596;28;20047;-70
2022/01/19 09:57:14;;;;;;;15.35;5.15;;;6.40;99.90;;;6.32;76.27;101999.13;5146668;28;20506;-70
2022/01/19 09:59:46;;;;;;;7.20;4.13;;;6.40;99.90;;;6.32;76.68;101998.22;5143981;28;20050;-70
2022/01/19 10:02:19;;;;;;;9.98;4.57;;;6.40;99.90;;;6.28;76.53;101996.22;5155301;28;20517;-70
2022/01/19 10:04:51;;;;;;;11.05;4.70;;;6.40;99.90;;;6.24;76.30;101988.22;5163329;28;20054;-70
2022/01/19 10:07:25;;;;;;;9.73;4.72;;;6.30;99.90;;;6.18;76.42;101985.19;5163922;28;20525;-71
2022/01/19 10:10:01;;;;;;;10.18;4.72;;;6.30;99.90;;;6.18;76.40;101987.78;5163524;28;20046;-71
2022/01/19 10:18:23;;;;;;;8.35;4.43;;;6.20;99.90;;;6.07;76.88;101988.72;5171348;28;20054;-71
2022/01/19 10:21:06;;;;;;;8.52;4.55;;;6.20;99.90;;;6.03;77.12;101985.78;5163889;28;20057;-70
2022/01/19 10:23:44;;;;;;;8.07;4.45;;;6.10;99.90;;;6.00;77.17;101970.97;5157633;28;20050;-71
2022/01/19 10:26:25;;;;;;;9.30;4.07;;;6.10;99.90;;;6.03;77.04;101975.44;5164634;28;20054;-72
2022/01/19 10:29:01;;;;;;;6.75;3.78;;;6.10;99.90;;;5.97;76.73;101970.72;5163822;28;20484;-71
2022/01/19 10:31:36;;;;;;;11.30;5.03;;;6.10;99.90;;;5.88;76.81;101970.03;5163325;28;20057;-72
2022/01/19 10:34:16;;;;;;;8.40;4.38;;;6.10;99.90;;;5.85;76.96;101972.38;5163630;28;20054;-72
2022/01/19 10:36:52;;;;;;;10.10;5.25;;;6.00;99.90;;;5.87;77.37;101968.25;5163621;28;20133;-71
2022/01/19 10:39:42;;;;;;;10.07;4.40;;;6.00;99.90;;;5.89;77.29;101966.66;5163755;28;20085;-70
2022/01/19 10:42:17;;;;;;;9.48;4.90;;;6.00;99.90;;;5.88;76.95;101957.09;5164383;28;20076;-71
2022/01/19 10:44:52;;;;;;;12.38;5.07;;;6.00;99.90;;;5.89;77.00;101962.38;5165934;28;20054;-71
2022/01/19 10:47:45;;;;;;;12.45;6.13;;;6.00;99.90;;;5.86;76.60;101961.25;5167548;28;20427;-70
2022/01/19 10:50:25;;;;;;;9.63;5.15;;;6.00;99.90;;;5.87;77.10;101957.88;5167766;28;20050;-70
2022/01/19 10:53:00;;;;;;;10.07;5.28;;;6.00;99.90;;;5.89;76.67;101940.78;5167480;28;20061;-70
2022/01/19 10:55:40;;;;;;;10.45;5.63;;;6.00;99.90;;;5.81;75.71;101942.81;5167318;28;20076;-71
2022/01/19 10:58:16;;;;;;;10.65;5.28;;;5.90;99.90;;;5.78;76.06;101939.09;5167434;28;20458;-70
2022/01/19 11:00:50;;;;;;;11.57;5.50;;;5.90;99.90;;;5.79;76.76;101934.03;5167628;28;20046;-71
2022/01/19 11:03:26;;;;;;;11.07;5.53;;;5.90;99.90;;;5.83;76.37;101925.69;5167223;28;20050;-71
2022/01/19 11:06:01;;;;;;;12.25;6.00;;;5.90;99.90;;;5.87;77.15;101927.72;5166316;28;20380;-74
2022/01/19 11:08:35;;;;;;;10.75;5.63;;;6.00;99.90;;;5.89;76.45;101914.88;5166804;28;20430;-71
2022/01/19 11:11:08;;;;;;;12.45;5.90;;;6.00;99.90;;;5.91;76.97;101905.56;5166756;28;20173;-71
2022/01/19 11:13:42;;;;;;;11.15;5.07;;;6.00;99.90;;;5.94;76.86;101913.56;5167074;28;20101;-71
2022/01/19 11:16:14;;;;;;;11.82;5.40;;;6.00;99.90;;;5.96;76.96;101909.41;5166381;28;20142;-70
2022/01/19 11:18:46;;;;;;;12.25;5.60;;;6.00;99.90;;;5.98;76.42;101906.13;5166829;28;20050;-71
2022/01/19 11:21:24;;;;;;;12.75;5.85;;;6.00;99.90;;;5.98;76.24;101897.44;5166839;28;20051;-71
2022/01/19 11:24:05;;;;;;;11.52;5.25;;;6.10;99.90;;;5.98;76.77;101892.28;5165937;28;20061;-71
2022/01/19 11:26:40;;;;;;;11.38;5.63;;;6.10;99.90;;;5.99;76.61;101875.94;5166468;28;20077;-71
2022/01/19 11:31:49;;;;;;;11.48;6.05;;;6.10;99.90;;;6.03;75.90;101872.78;5249306;22;20050;-70
2022/01/19 11:34:45;;;;;;;12.05;5.57;;;6.10;99.90;;;6.07;75.97;101880.00;5185028;28;20132;-69
2022/01/19 11:37:33;;;;;;;13.50;6.30;;;6.10;99.90;;;6.09;75.85;101868.03;5166422;28;20485;-70
2022/01/19 11:40:13;;;;;;;13.13;5.90;;;6.20;99.90;;;6.12;75.73;101868.25;5166236;28;20050;-69
2022/01/19 11:42:47;;;;;;;13.05;6.53;;;6.20;99.90;;;6.15;75.35;101865.00;5166253;28;20054;-70
2022/01/19 11:45:38;;;;;;;9.68;5.45;;;6.20;99.90;;;6.17;75.74;101841.00;5165340;28;20050;-69
2022/01/19 11:48:15;;;;;;;11.30;5.53;;;6.20;99.90;;;6.20;75.38;101841.22;5166421;28;20050;-70
2022/01/19 11:50:49;;;;;;;12.77;6.45;;;6.30;99.90;;;6.23;75.42;101831.06;5166816;28;20054;-70
2022/01/19 11:53:22;;;;;;;12.10;6.22;;;6.30;99.90;;;6.24;75.31;101832.84;5166464;28;20412;-70
2022/01/19 11:56:08;;;;;;;14.27;6.20;;;6.30;99.90;;;6.25;75.37;101829.47;5166233;28;20117;-71
2022/01/19 11:59:05;;;;;;;10.65;5.72;;;6.30;99.90;;;6.31;74.78;101817.72;5166734;28;20058;-69
2022/01/19 12:01:38;;;;;;;15.10;5.68;;;6.40;99.90;;;6.32;74.56;101819.53;5166715;28;20054;-69
2022/01/19 12:04:16;;;;;;;13.82;6.05;;;6.40;99.90;;;6.34;74.35;101817.97;5165994;28;20057;-70
2022/01/19 12:06:49;;;;;;;11.52;5.03;;;6.40;99.90;;;6.33;74.32;101809.28;5166625;28;20423;-70